Rachel Carson — WDE6481 — position and weather

sailwx.info

Track history (hours):
 
Tides and Currents Weather Stations Pressure Air Temp Water Temp Dewpoint Dewpoint Depression Visibility Wind Speed Wind Dir Waves Ship Positions

Oceanographic research ship Rachel Carson (USA)

Owner: University of Maryland Center for Environmental Science Research Fleet Operations, Solomons, MD. More information available from US FCC via Universal Licensing System and Coast Guard Vessel Documentation Center.

Last reported at 2016-Dec-07 17:32 UTC. Time now 2017-Mar-26 01:44 UTC.
Position N 38°08' W 076°18'.
Warning: this ship's position is months out of date.

Length 24 m; draft 1.5 m.

Type: Other ship. MMSI: 367380790.

Date/timePositionNaut miles runAvg speedWind from/ knotsBaromVisibWave heightAir tempDewpointWater temp
2016-Dec-07 17:32N 38°08' W 076°18'4911.8
2016-Dec-07 13:24N 38°37' W 077°09'1213.8
2016-Dec-07 12:33N 38°47' W 077°01'0 0.0
2016-Dec-07 11:33N 38°47' W 077°01'0 0.0
2016-Dec-07 10:33N 38°47' W 077°01'0 0.0
2016-Dec-07 09:33N 38°47' W 077°01'0 0.0
2016-Dec-07 08:33N 38°47' W 077°01'0 0.0
2016-Dec-07 07:33N 38°47' W 077°01'0 0.0
2016-Dec-07 06:33N 38°47' W 077°01'0 0.0
2016-Dec-07 05:33N 38°47' W 077°01'0 0.0
2016-Dec-07 04:33N 38°47' W 077°01'0 0.0
2016-Dec-07 03:33N 38°47' W 077°01'0 0.0
2016-Dec-07 02:33N 38°47' W 077°01'0 0.0
2016-Dec-07 01:33N 38°47' W 077°01'0 0.0
2016-Dec-07 00:30N 38°47' W 077°01'0 0.0
2016-Dec-06 23:33N 38°47' W 077°01'0 0.0
2016-Dec-06 22:30N 38°47' W 077°01'0 0.0
2016-Dec-06 21:31N 38°47' W 077°01'0 0.0
2016-Dec-06 20:30N 38°47' W 077°01'0 0.0
2016-Dec-06 18:30N 38°47' W 077°01'1 0.8
2016-Dec-06 17:29N 38°47' W 077°02'0 0.0
2016-Dec-06 16:31N 38°47' W 077°02'0 0.0
2016-Dec-06 15:33N 38°47' W 077°02'0 0.0
2016-Dec-06 14:33N 38°47' W 077°02'1 0.8
2016-Dec-06 13:31N 38°47' W 077°01'0 0.0
2016-Dec-06 12:31N 38°47' W 077°01'0 0.0
2016-Dec-06 11:31N 38°47' W 077°01'0 0.0
2016-Dec-06 10:31N 38°47' W 077°01'0 0.0
2016-Dec-06 09:31N 38°47' W 077°01'0 0.0
2016-Dec-06 08:31N 38°47' W 077°01'0 0.0
2016-Dec-06 07:31N 38°47' W 077°01'0 0.0
2016-Dec-06 06:31N 38°47' W 077°01'0 0.0
2016-Dec-06 05:31N 38°47' W 077°01'0 0.0
2016-Dec-06 04:31N 38°47' W 077°01'0 0.0
2016-Dec-06 03:31N 38°47' W 077°01'0 0.0
2016-Dec-06 02:31N 38°47' W 077°01'0 0.0
2016-Dec-06 01:31N 38°47' W 077°01'0 0.0
2016-Dec-06 00:31N 38°47' W 077°01'0 0.0
2016-Dec-05 23:31N 38°47' W 077°01'0 0.0
2016-Dec-05 22:31N 38°47' W 077°01'0 0.0
2016-Dec-05 21:31N 38°47' W 077°01'0 0.0
2016-Dec-05 20:31N 38°47' W 077°01'5 4.8
2016-Dec-05 19:32N 38°52' W 077°01'3 2.9
2016-Dec-05 18:33N 38°49' W 077°02'  
Track history (hours):
 
Tides and Currents Weather Stations Pressure Air Temp Water Temp Dewpoint Dewpoint Depression Visibility Wind Speed Wind Dir Waves Ship Positions

Oceanographic research ship Rachel Carson (USA)

Owner: University of Maryland Center for Environmental Science Research Fleet Operations, Solomons, MD. More information available from US FCC via Universal Licensing System and Coast Guard Vessel Documentation Center.

Last reported at 2016-Dec-07 17:32 UTC. Time now 2017-Mar-26 01:44 UTC.
Position N 38°08' W 076°18'.
Warning: this ship's position is months out of date.

Length 24 m; draft 1.5 m.

Type: Other ship. MMSI: 367380790.

Date/timePositionNaut miles runAvg speedWind from/ knotsBaromVisibWave heightAir tempDewpointWater temp
2016-Dec-07 17:32N 38°08' W 076°18'4911.8
2016-Dec-07 13:24N 38°37' W 077°09'1213.8
2016-Dec-07 12:33N 38°47' W 077°01'0 0.0
2016-Dec-07 11:33N 38°47' W 077°01'0 0.0
2016-Dec-07 10:33N 38°47' W 077°01'0 0.0
2016-Dec-07 09:33N 38°47' W 077°01'0 0.0
2016-Dec-07 08:33N 38°47' W 077°01'0 0.0
2016-Dec-07 07:33N 38°47' W 077°01'0 0.0
2016-Dec-07 06:33N 38°47' W 077°01'0 0.0
2016-Dec-07 05:33N 38°47' W 077°01'0 0.0
2016-Dec-07 04:33N 38°47' W 077°01'0 0.0
2016-Dec-07 03:33N 38°47' W 077°01'0 0.0
2016-Dec-07 02:33N 38°47' W 077°01'0 0.0
2016-Dec-07 01:33N 38°47' W 077°01'0 0.0
2016-Dec-07 00:30N 38°47' W 077°01'0 0.0
2016-Dec-06 23:33N 38°47' W 077°01'0 0.0
2016-Dec-06 22:30N 38°47' W 077°01'0 0.0
2016-Dec-06 21:31N 38°47' W 077°01'0 0.0
2016-Dec-06 20:30N 38°47' W 077°01'0 0.0
2016-Dec-06 18:30N 38°47' W 077°01'1 0.8
2016-Dec-06 17:29N 38°47' W 077°02'0 0.0
2016-Dec-06 16:31N 38°47' W 077°02'0 0.0
2016-Dec-06 15:33N 38°47' W 077°02'0 0.0
2016-Dec-06 14:33N 38°47' W 077°02'1 0.8
2016-Dec-06 13:31N 38°47' W 077°01'0 0.0
2016-Dec-06 12:31N 38°47' W 077°01'0 0.0
2016-Dec-06 11:31N 38°47' W 077°01'0 0.0
2016-Dec-06 10:31N 38°47' W 077°01'0 0.0
2016-Dec-06 09:31N 38°47' W 077°01'0 0.0
2016-Dec-06 08:31N 38°47' W 077°01'0 0.0
2016-Dec-06 07:31N 38°47' W 077°01'0 0.0
2016-Dec-06 06:31N 38°47' W 077°01'0 0.0
2016-Dec-06 05:31N 38°47' W 077°01'0 0.0
2016-Dec-06 04:31N 38°47' W 077°01'0 0.0
2016-Dec-06 03:31N 38°47' W 077°01'0 0.0
2016-Dec-06 02:31N 38°47' W 077°01'0 0.0
2016-Dec-06 01:31N 38°47' W 077°01'0 0.0
2016-Dec-06 00:31N 38°47' W 077°01'0 0.0
2016-Dec-05 23:31N 38°47' W 077°01'0 0.0
2016-Dec-05 22:31N 38°47' W 077°01'0 0.0
2016-Dec-05 21:31N 38°47' W 077°01'0 0.0
2016-Dec-05 20:31N 38°47' W 077°01'5 4.8
2016-Dec-05 19:32N 38°52' W 077°01'3 2.9
2016-Dec-05 18:33N 38°49' W 077°02'  

Dump ship's entire track history